createdAt,value
2023-02-03T00:02:06.027Z,101297.16
2023-02-03T00:04:35.574Z,101292.16
2023-02-03T00:07:02.565Z,101293.94
2023-02-03T00:09:32.727Z,101288.88
2023-02-03T00:11:59.735Z,101282.09
2023-02-03T00:14:26.666Z,101275.22
2023-02-03T00:16:53.616Z,101270.88
2023-02-03T00:19:20.577Z,101269.09
2023-02-03T00:21:47.590Z,101263.84
2023-02-03T00:24:14.795Z,101251.69
2023-02-03T00:26:44.561Z,101249.03
2023-02-03T00:29:12.036Z,101238.63
2023-02-03T00:31:39.643Z,101232.50
2023-02-03T00:36:48.437Z,101211.72
2023-02-03T00:39:16.364Z,101209.06
2023-02-03T00:41:45.118Z,101208.03
2023-02-03T00:44:14.175Z,101195.06
2023-02-03T00:46:41.399Z,101182.81
2023-02-03T00:49:08.368Z,101169.81
2023-02-03T00:51:35.675Z,101174.94
2023-02-03T00:54:02.746Z,101196.38
2023-02-03T00:56:29.750Z,101179.13
2023-02-03T00:58:56.743Z,101177.44
2023-02-03T01:01:23.812Z,101186.06
2023-02-03T01:03:50.814Z,101172.38
2023-02-03T01:06:22.753Z,101174.94
2023-02-03T01:08:50.978Z,101169.78
2023-02-03T01:11:24.187Z,101153.41
2023-02-03T01:13:54.192Z,101155.09
2023-02-03T01:16:24.516Z,101155.09
2023-02-03T01:18:51.820Z,101153.53
2023-02-03T01:21:24.148Z,101148.47
2023-02-03T01:23:54.911Z,101141.69
2023-02-03T01:26:23.973Z,101134.91
2023-02-03T01:28:56.986Z,101134.91
2023-02-03T01:31:42.838Z,101126.19
2023-02-03T01:34:16.454Z,101118.47
2023-02-03T01:36:43.419Z,101104.59
2023-02-03T01:39:10.739Z,101107.09
2023-02-03T01:41:41.673Z,101102.75
2023-02-03T01:44:47.676Z,101101.81
2023-02-03T01:47:22.277Z,101082.91
2023-02-03T01:49:58.289Z,101075.19
2023-02-03T01:52:26.085Z,101070.91
2023-02-03T01:54:57.620Z,101053.69
2023-02-03T01:57:35.085Z,101045.00
2023-02-03T02:00:05.698Z,101046.69
2023-02-03T02:02:33.307Z,101047.50
2023-02-03T02:05:32.426Z,101044.03
2023-02-03T02:08:02.232Z,101044.03
2023-02-03T02:10:30.899Z,101028.47
2023-02-03T02:12:59.696Z,101024.22
2023-02-03T02:16:17.180Z,101011.25
2023-02-03T02:18:57.680Z,100999.31
2023-02-03T02:21:49.153Z,100993.34
2023-02-03T02:24:25.301Z,100985.66
2023-02-03T02:26:57.575Z,100973.50
2023-02-03T02:30:08.237Z,100977.72
2023-02-03T02:33:18.478Z,100944.03
2023-02-03T02:36:16.838Z,100945.59
2023-02-03T02:39:04.933Z,100929.91
2023-02-03T02:41:39.998Z,100921.09
2023-02-03T02:44:23.823Z,100908.78
2023-02-03T02:46:57.265Z,100896.59
2023-02-03T02:49:35.714Z,100909.41
2023-02-03T02:52:07.901Z,100894.59
2023-02-03T02:54:39.753Z,100891.88
2023-02-03T02:57:10.445Z,100888.41
2023-02-03T02:59:37.361Z,100881.56
2023-02-03T03:02:06.703Z,100876.22
2023-02-03T03:04:37.649Z,100864.06
2023-02-03T03:07:08.739Z,100855.38
2023-02-03T03:09:55.738Z,100856.03
2023-02-03T03:12:32.598Z,100855.88
2023-02-03T03:15:05.574Z,100855.09
2023-02-03T03:17:39.429Z,100854.28
2023-02-03T03:20:14.022Z,100836.44
2023-02-03T03:22:49.211Z,100829.69
2023-02-03T03:25:25.410Z,100809.88
2023-02-03T03:27:59.518Z,100801.25
2023-02-03T03:30:38.249Z,100796.09
2023-02-03T03:33:07.085Z,100788.56
2023-02-03T03:35:49.658Z,100789.31
2023-02-03T03:38:39.796Z,100783.44
2023-02-03T03:41:15.208Z,100771.53
2023-02-03T03:43:45.197Z,100765.63
2023-02-03T03:46:30.957Z,100775.28
2023-02-03T03:49:03.397Z,100783.22
2023-02-03T03:51:47.303Z,100770.44
2023-02-03T03:54:19.321Z,100759.38
2023-02-03T03:57:09.828Z,100747.44
2023-02-03T03:59:39.580Z,100743.28
2023-02-03T04:02:07.312Z,100759.78
2023-02-03T04:04:36.885Z,100764.31
2023-02-03T04:07:03.833Z,100762.81
2023-02-03T04:09:30.914Z,100734.69
2023-02-03T04:12:06.051Z,100741.75
2023-02-03T04:14:38.734Z,100736.66
2023-02-03T04:17:06.335Z,100716.97
2023-02-03T04:19:33.339Z,100698.16
2023-02-03T04:22:02.356Z,100698.31
2023-02-03T04:24:36.663Z,100700.22
2023-02-03T04:27:06.175Z,100690.91
2023-02-03T04:29:33.152Z,100688.50
2023-02-03T04:32:00.134Z,100693.00
2023-02-03T04:34:27.118Z,100681.19
2023-02-03T04:36:54.101Z,100664.94
2023-02-03T04:39:23.884Z,100674.50
2023-02-03T04:41:50.839Z,100658.31
2023-02-03T04:44:17.796Z,100654.22
2023-02-03T04:46:44.695Z,100655.28
2023-02-03T04:49:11.733Z,100651.22
2023-02-03T04:51:40.781Z,100638.59
2023-02-03T04:54:07.814Z,100628.47
2023-02-03T04:56:41.803Z,100626.13
2023-02-03T04:59:09.125Z,100611.72
2023-02-03T05:01:36.056Z,100616.34
2023-02-03T05:04:03.004Z,100622.66
2023-02-03T05:06:32.086Z,100615.25
2023-02-03T05:08:59.327Z,100605.22
2023-02-03T05:11:26.887Z,100606.38
2023-02-03T05:13:54.524Z,100604.94
2023-02-03T05:16:21.601Z,100601.75
2023-02-03T05:18:56.422Z,100599.34
2023-02-03T05:21:25.687Z,100596.97
2023-02-03T05:23:52.587Z,100586.00
2023-02-03T05:26:19.970Z,100587.13
2023-02-03T05:28:46.908Z,100576.13
2023-02-03T05:31:13.932Z,100575.53
2023-02-03T05:33:41.044Z,100574.03
2023-02-03T05:36:08.993Z,100566.56
2023-02-03T05:38:35.944Z,100566.84
2023-02-03T05:41:21.489Z,100552.47
2023-02-03T05:43:48.442Z,100550.22
2023-02-03T05:46:15.429Z,100551.28
2023-02-03T05:48:44.192Z,100555.03
2023-02-03T05:51:13.598Z,100530.19
2023-02-03T05:53:40.524Z,100526.13
2023-02-03T05:56:07.588Z,100522.00
2023-02-03T05:58:34.638Z,100511.81
2023-02-03T06:01:04.264Z,100520.59
2023-02-03T06:03:31.262Z,100514.75
2023-02-03T06:06:01.077Z,100503.69
2023-02-03T06:08:31.413Z,100492.63
2023-02-03T06:11:00.751Z,100485.00
2023-02-03T06:13:28.850Z,100486.00
2023-02-03T06:15:56.339Z,100484.38
2023-02-03T06:18:23.607Z,100474.94
2023-02-03T06:20:51.352Z,100486.25
2023-02-03T06:23:19.254Z,100470.81
2023-02-03T06:25:49.150Z,100466.59
2023-02-03T06:28:16.786Z,100461.47
2023-02-03T06:30:44.416Z,100477.09
2023-02-03T06:33:11.390Z,100474.53
2023-02-03T06:35:38.463Z,100480.72
2023-02-03T06:38:05.516Z,100471.25
2023-02-03T06:40:32.500Z,100463.56
2023-02-03T06:42:59.418Z,100472.22
2023-02-03T06:45:26.488Z,100462.75
2023-02-03T06:47:53.409Z,100466.28
2023-02-03T06:50:20.838Z,100458.53
2023-02-03T06:52:51.644Z,100443.91
2023-02-03T06:55:18.747Z,100445.72
2023-02-03T06:57:47.843Z,100431.91
2023-02-03T07:00:19.019Z,100433.69
2023-02-03T07:02:47.097Z,100435.47
2023-02-03T07:05:14.304Z,100421.66
2023-02-03T07:07:41.203Z,100415.66
2023-02-03T07:10:09.204Z,100418.31
2023-02-03T07:12:36.892Z,100397.56
2023-02-03T07:15:05.486Z,100396.78
2023-02-03T07:17:32.482Z,100397.69
2023-02-03T07:19:59.945Z,100391.69
2023-02-03T07:22:26.943Z,100385.66
2023-02-03T07:24:53.935Z,100389.16
2023-02-03T07:27:20.904Z,100388.28
2023-02-03T07:29:47.912Z,100366.66
2023-02-03T07:32:15.368Z,100364.13
2023-02-03T07:34:42.327Z,100358.09
2023-02-03T07:37:09.325Z,100345.13
2023-02-03T07:39:36.498Z,100341.66
2023-02-03T07:42:03.458Z,100342.59
2023-02-03T07:44:30.648Z,100344.38
2023-02-03T07:46:57.666Z,100333.19
2023-02-03T07:49:24.822Z,100336.66
2023-02-03T07:51:51.891Z,100321.16
2023-02-03T07:54:19.090Z,100320.31
2023-02-03T07:56:46.038Z,100318.59
2023-02-03T07:59:13.075Z,100317.72
2023-02-03T08:01:40.084Z,100310.78
2023-02-03T08:04:07.158Z,100310.78
2023-02-03T08:06:34.556Z,100290.00
2023-02-03T08:09:02.418Z,100298.69
2023-02-03T08:11:29.427Z,100283.13
2023-02-03T08:13:56.527Z,100279.69
2023-02-03T08:16:23.542Z,100280.63
2023-02-03T08:18:50.551Z,100279.06
2023-02-03T08:21:17.458Z,100255.00
2023-02-03T08:23:44.364Z,100273.28
2023-02-03T08:26:11.346Z,100264.72
2023-02-03T08:28:38.286Z,100262.06
2023-02-03T08:31:12.664Z,100253.31
2023-02-03T08:33:39.695Z,100253.19
2023-02-03T08:36:07.261Z,100252.22
2023-02-03T08:38:34.265Z,100247.88
2023-02-03T08:41:02.273Z,100246.13
2023-02-03T08:43:29.295Z,100232.28
2023-02-03T08:45:56.289Z,100234.00
2023-02-03T08:48:23.268Z,100241.78
2023-02-03T08:50:52.897Z,100232.25
2023-02-03T08:53:20.330Z,100232.28
2023-02-03T08:55:47.398Z,100221.03
2023-02-03T08:58:14.473Z,100216.72
2023-02-03T09:00:42.105Z,100211.56
2023-02-03T09:03:09.106Z,100205.50
2023-02-03T09:05:36.807Z,100207.22
2023-02-03T09:08:03.908Z,100208.97
2023-02-03T09:10:31.173Z,100215.03
2023-02-03T09:12:58.437Z,100209.84
2023-02-03T09:15:25.408Z,100195.16
2023-02-03T09:17:52.356Z,100190.81
2023-02-03T09:20:19.421Z,100182.22
2023-02-03T09:22:46.499Z,100196.94
2023-02-03T09:25:14.219Z,100183.13
2023-02-03T09:27:41.189Z,100173.63
2023-02-03T09:30:08.856Z,100178.84
2023-02-03T09:32:35.845Z,100183.19
2023-02-03T09:35:02.813Z,100156.34
2023-02-03T09:37:30.567Z,100154.63
2023-02-03T09:39:59.004Z,100164.16
2023-02-03T09:42:41.943Z,100158.97
2023-02-03T09:45:30.904Z,100155.53
2023-02-03T09:48:17.887Z,100135.63
2023-02-03T09:50:47.517Z,100142.56
2023-02-03T09:53:36.019Z,100129.63
2023-02-03T09:56:03.624Z,100134.81
2023-02-03T09:58:34.481Z,100138.31
2023-02-03T10:01:09.460Z,100134.88
2023-02-03T10:04:28.032Z,100106.31
2023-02-03T10:07:25.671Z,100100.31
2023-02-03T10:10:27.006Z,100088.22
2023-02-03T10:13:14.884Z,100060.53
2023-02-03T10:16:15.574Z,100064.03
2023-02-03T10:18:56.073Z,100061.44
2023-02-03T10:21:46.670Z,100051.09
2023-02-03T10:24:59.947Z,100062.41
2023-02-03T10:27:29.180Z,100048.56
2023-02-03T10:30:27.341Z,100051.19
2023-02-03T10:33:12.281Z,100064.22
2023-02-03T10:35:55.200Z,100060.75
2023-02-03T10:39:17.446Z,100059.88
2023-02-03T10:41:44.468Z,100064.22
2023-02-03T10:44:14.596Z,100078.94
2023-02-03T10:46:43.986Z,100124.88
2023-02-03T10:49:14.442Z,100137.88
2023-02-03T10:51:55.712Z,100145.69
2023-02-03T10:54:33.431Z,100135.16
2023-02-03T10:57:15.947Z,100153.94
2023-02-03T10:59:46.580Z,100145.06
2023-02-03T11:02:25.270Z,100155.41
2023-02-03T11:05:12.150Z,100149.34
2023-02-03T11:07:39.123Z,100136.41
2023-02-03T11:10:35.555Z,100145.06
2023-02-03T11:13:25.293Z,100144.19
2023-02-03T11:15:55.354Z,100143.38
2023-02-03T11:19:05.681Z,100134.72
2023-02-03T11:21:41.727Z,100128.72
2023-02-03T11:24:24.650Z,100142.59
2023-02-03T11:27:06.793Z,100127.97
2023-02-03T11:29:45.071Z,100109.81
2023-02-03T11:32:32.388Z,100121.16
2023-02-03T11:35:19.229Z,100114.28
2023-02-03T11:37:53.118Z,100117.78
2023-02-03T11:40:34.352Z,100132.50
2023-02-03T11:43:04.844Z,100144.78
2023-02-03T11:45:42.476Z,100136.16
2023-02-03T11:48:29.984Z,100137.94
2023-02-03T11:51:36.280Z,100132.91
2023-02-03T11:54:23.591Z,100126.94
2023-02-03T11:57:21.634Z,100138.34
2023-02-03T12:00:34.413Z,100140.19
2023-02-03T12:03:35.062Z,100143.69
2023-02-03T12:06:41.531Z,100141.97
2023-02-03T12:09:43.541Z,100152.41
2023-02-03T12:12:37.633Z,100143.63
2023-02-03T12:15:53.605Z,100147.97
2023-02-03T12:18:42.979Z,100153.25
2023-02-03T12:21:57.335Z,100148.25
2023-02-03T12:24:56.765Z,100136.28
2023-02-03T12:27:52.186Z,100145.09
2023-02-03T12:30:24.959Z,100125.19
2023-02-03T12:33:12.343Z,100126.06
2023-02-03T12:35:56.689Z,100137.34
2023-02-03T12:38:43.233Z,100127.81
2023-02-03T12:41:36.287Z,100129.56
2023-02-03T12:44:17.716Z,100136.50
2023-02-03T12:47:07.195Z,100145.16
2023-02-03T12:49:40.690Z,100120.84
2023-02-03T12:52:19.907Z,100152.06
2023-02-03T12:55:08.829Z,100139.00
2023-02-03T12:57:49.862Z,100134.56
2023-02-03T13:00:26.842Z,100143.94
2023-02-03T13:03:25.136Z,100203.47
2023-02-03T13:06:20.089Z,100228.88
2023-02-03T13:09:30.209Z,100264.53
2023-02-03T13:12:12.609Z,100246.56
2023-02-03T13:15:10.968Z,100264.34
2023-02-03T13:18:02.982Z,100270.09
2023-02-03T13:20:35.948Z,100263.94
2023-02-03T13:23:12.642Z,100278.59
2023-02-03T13:26:29.158Z,100294.00
2023-02-03T13:30:06.174Z,100281.50
2023-02-03T13:33:23.026Z,100282.84
2023-02-03T13:36:26.291Z,100266.34
2023-02-03T13:39:18.379Z,100248.25
2023-02-03T13:41:50.168Z,100258.72
2023-02-03T13:44:23.304Z,100255.31
2023-02-03T13:46:52.129Z,100247.72
2023-02-03T13:49:31.520Z,100259.00
2023-02-03T13:51:58.972Z,100257.31
2023-02-03T13:54:43.748Z,100259.91
2023-02-03T13:57:45.842Z,100259.03
2023-02-03T14:00:44.796Z,100259.16
2023-02-03T14:03:19.198Z,100251.44
2023-02-03T14:05:49.548Z,100235.97
2023-02-03T14:08:25.915Z,100237.78
2023-02-03T14:11:34.538Z,100236.97
2023-02-03T14:14:07.629Z,100231.00
2023-02-03T14:16:37.197Z,100237.09
2023-02-03T14:19:09.305Z,100216.44
2023-02-03T14:21:54.325Z,100231.25
2023-02-03T14:24:22.627Z,100235.69
2023-02-03T14:26:55.322Z,100241.75
2023-02-03T14:29:36.627Z,100241.75
2023-02-03T14:32:09.783Z,100253.88
2023-02-03T14:34:47.521Z,100260.94
2023-02-03T14:37:17.219Z,100248.09
2023-02-03T14:40:14.486Z,100264.81
2023-02-03T14:43:12.654Z,100246.94
2023-02-03T14:46:21.127Z,100261.03
2023-02-03T14:49:23.475Z,100250.75
2023-02-03T14:52:25.907Z,100268.13
2023-02-03T14:55:22.307Z,100249.09
2023-02-03T14:57:54.492Z,100254.34
2023-02-03T15:00:25.440Z,100263.91
2023-02-03T15:03:09.041Z,100257.88
2023-02-03T15:05:43.918Z,100268.28
2023-02-03T15:08:49.258Z,100269.13
2023-02-03T15:11:31.120Z,100269.13
2023-02-03T15:14:34.906Z,100289.81
2023-02-03T15:17:12.969Z,100280.28
2023-02-03T15:19:42.815Z,100271.59
2023-02-03T15:22:23.074Z,100303.56
2023-02-03T15:24:53.239Z,100312.19
2023-02-03T15:27:29.962Z,100314.75
2023-02-03T15:29:59.933Z,100331.19
2023-02-03T15:32:38.668Z,100315.59
2023-02-03T15:35:11.685Z,100335.50
2023-02-03T15:37:54.939Z,100334.63
2023-02-03T15:40:24.281Z,100298.22
2023-02-03T15:43:01.744Z,100344.13
2023-02-03T15:45:32.072Z,100332.75
2023-02-03T15:48:23.104Z,100354.38
2023-02-03T15:51:24.349Z,100340.50
2023-02-03T15:54:04.207Z,100357.72
2023-02-03T15:56:45.601Z,100359.38
2023-02-03T15:59:38.246Z,100361.94
2023-02-03T16:02:40.851Z,100355.88
2023-02-03T16:05:37.166Z,100319.53
2023-02-03T16:08:46.028Z,100360.16
2023-02-03T16:11:34.510Z,100358.41
2023-02-03T16:14:04.852Z,100359.28
2023-02-03T16:16:55.243Z,100367.88
2023-02-03T16:19:32.399Z,100367.88
2023-02-03T16:22:00.251Z,100369.19
2023-02-03T16:24:46.331Z,100351.22
2023-02-03T16:27:28.542Z,100370.47
2023-02-03T16:30:40.573Z,100384.16
2023-02-03T16:33:32.646Z,100371.91
2023-02-03T16:36:29.440Z,100385.63
2023-02-03T16:39:16.908Z,100392.44
2023-02-03T16:42:02.443Z,100409.66
2023-02-03T16:44:47.980Z,100393.13
2023-02-03T16:47:47.246Z,100402.56
2023-02-03T16:50:39.914Z,100407.75
2023-02-03T16:53:23.104Z,100417.16
2023-02-03T16:55:51.806Z,100402.38
2023-02-03T16:58:19.571Z,100418.00
2023-02-03T17:00:49.657Z,100399.84
2023-02-03T17:03:21.673Z,100406.81
2023-02-03T17:05:50.572Z,100401.59
2023-02-03T17:08:21.553Z,100396.44
2023-02-03T17:10:49.368Z,100393.84
2023-02-03T17:13:19.290Z,100399.09
2023-02-03T17:15:49.991Z,100412.06
2023-02-03T17:18:17.325Z,100395.59
2023-02-03T17:20:46.037Z,100412.06
2023-02-03T17:23:16.128Z,100413.81
2023-02-03T17:25:48.653Z,100418.16
2023-02-03T17:28:16.257Z,100431.22
2023-02-03T17:30:43.318Z,100430.38
2023-02-03T17:33:13.878Z,100419.19
2023-02-03T17:35:45.245Z,100439.97
2023-02-03T17:38:16.820Z,100414.88
2023-02-03T17:54:39.599Z,100445.84
2023-02-03T17:57:07.123Z,100443.22
2023-02-03T17:59:35.559Z,100448.41
2023-02-03T18:02:02.581Z,100439.78
2023-02-03T18:04:29.595Z,100449.34
2023-02-03T18:06:56.565Z,100467.50
2023-02-03T18:09:23.532Z,100460.59
2023-02-03T18:11:50.613Z,100449.28
2023-02-03T18:14:18.124Z,100469.19
2023-02-03T18:16:45.510Z,100461.44
2023-02-03T18:19:15.733Z,100468.44
2023-02-03T18:21:43.638Z,100467.53
2023-02-03T18:24:13.549Z,100462.34
2023-02-03T18:26:51.164Z,100453.69
2023-02-03T18:29:18.612Z,100462.38
2023-02-03T18:31:46.313Z,100460.66
2023-02-03T18:34:15.067Z,100446.84
2023-02-03T18:36:42.704Z,100443.38
2023-02-03T18:39:11.303Z,100458.09
2023-02-03T18:41:39.802Z,100448.56
2023-02-03T18:44:06.846Z,100458.13
2023-02-03T18:46:34.191Z,100470.28
2023-02-03T18:49:01.284Z,100472.91
2023-02-03T18:51:28.675Z,100449.53
2023-02-03T18:53:59.688Z,100459.06
2023-02-03T18:56:35.584Z,100485.03
2023-02-03T18:59:08.708Z,100479.00
2023-02-03T19:01:38.682Z,100490.25
2023-02-03T19:04:06.315Z,100490.25
2023-02-03T19:06:34.776Z,100493.66
2023-02-03T19:09:04.111Z,100494.53
2023-02-03T19:11:31.208Z,100501.44
2023-02-03T19:13:58.281Z,100491.91
2023-02-03T19:16:25.208Z,100493.66
2023-02-03T19:18:52.488Z,100510.13
2023-02-03T19:21:20.097Z,100503.19
2023-02-03T19:23:47.157Z,100515.34
2023-02-03T19:26:14.131Z,100482.47
2023-02-03T19:28:41.253Z,100506.69
2023-02-03T19:31:12.189Z,100518.72
2023-02-03T19:33:39.449Z,100516.00
2023-02-03T19:36:07.935Z,100525.47
2023-02-03T19:38:37.262Z,100521.09
2023-02-03T19:41:04.790Z,100498.56
2023-02-03T19:43:31.807Z,100520.97
2023-02-03T19:45:59.167Z,100528.66
2023-02-03T19:48:26.286Z,100533.78
2023-02-03T19:50:53.378Z,100524.22
2023-02-03T19:53:21.597Z,100521.59
2023-02-03T19:55:48.711Z,100525.03
2023-02-03T19:58:15.729Z,100529.34
2023-02-03T20:00:43.748Z,100540.56
2023-02-03T20:03:11.076Z,100547.47
2023-02-03T20:05:38.470Z,100561.34
2023-02-03T20:08:06.042Z,100558.72
2023-02-03T20:10:33.253Z,100557.03
2023-02-03T20:13:00.876Z,100556.13
2023-02-03T20:15:27.859Z,100573.47
2023-02-03T20:17:54.882Z,100568.25
2023-02-03T20:20:22.276Z,100565.59
2023-02-03T20:22:50.059Z,100564.72
2023-02-03T20:25:18.368Z,100556.06
2023-02-03T20:27:45.461Z,100559.47
2023-02-03T20:30:13.061Z,100557.69
2023-02-03T20:32:40.066Z,100563.72
2023-02-03T20:35:08.030Z,100567.16
2023-02-03T20:37:38.477Z,100578.38
2023-02-03T20:40:17.366Z,100589.50
2023-02-03T20:42:44.416Z,100580.72
2023-02-03T20:45:15.427Z,100590.19
2023-02-03T20:47:43.029Z,100599.66
2023-02-03T20:50:28.912Z,100596.03
2023-02-03T20:52:58.824Z,100578.69
2023-02-03T20:55:25.991Z,100608.84
2023-02-03T20:57:55.098Z,100613.03
2023-02-03T21:00:26.516Z,100618.91
2023-02-03T21:03:12.516Z,100627.47
2023-02-03T21:05:42.738Z,100640.41
2023-02-03T21:08:17.593Z,100646.38
2023-02-03T21:10:46.935Z,100648.97
2023-02-03T21:13:27.126Z,100663.59
2023-02-03T21:16:00.050Z,100669.72
2023-02-03T21:18:39.549Z,100711.22
2023-02-03T21:21:16.280Z,100758.28
2023-02-03T21:23:47.361Z,100768.47
2023-02-03T21:26:34.352Z,100777.00
2023-02-03T21:29:02.210Z,100759.00
2023-02-03T21:31:32.659Z,100789.69
2023-02-03T21:34:02.892Z,100827.28
2023-02-03T21:36:37.916Z,100821.75
2023-02-03T21:39:36.492Z,100828.16
2023-02-03T21:42:42.176Z,100852.69
2023-02-03T21:45:16.492Z,100858.44
2023-02-03T21:47:46.567Z,100867.78
2023-02-03T21:50:46.110Z,100872.06
2023-02-03T21:53:12.951Z,100888.47
2023-02-03T21:55:42.283Z,100904.00
2023-02-03T21:58:33.947Z,100905.78
2023-02-03T22:01:06.343Z,100917.00
2023-02-03T22:03:40.694Z,100922.94
2023-02-03T22:06:17.504Z,100931.34
2023-02-03T22:08:51.582Z,100947.69
2023-02-03T22:11:20.884Z,100946.75
2023-02-03T22:13:48.431Z,100965.59
2023-02-03T22:16:17.333Z,100951.66
2023-02-03T22:18:48.066Z,100958.56
2023-02-03T22:21:16.175Z,100967.25
2023-02-03T22:23:43.803Z,100980.19
2023-02-03T22:26:12.365Z,100991.31
2023-02-03T22:28:40.210Z,101004.25
2023-02-03T22:31:08.951Z,101007.63
2023-02-03T22:33:36.398Z,101029.00
2023-02-03T22:36:06.520Z,101037.31
2023-02-03T22:38:34.904Z,101043.00
2023-02-03T22:41:02.176Z,101059.84
2023-02-03T22:43:31.007Z,101068.06
2023-02-03T22:45:58.612Z,101068.75
2023-02-03T22:48:25.728Z,101072.84
2023-02-03T22:50:52.640Z,101090.88
2023-02-03T22:53:19.620Z,101097.88
2023-02-03T22:55:46.606Z,101102.31
2023-02-03T22:58:13.590Z,101108.38
2023-02-03T23:00:40.571Z,101110.31
2023-02-03T23:03:07.695Z,101118.13
2023-02-03T23:05:34.710Z,101131.94
2023-02-03T23:08:02.686Z,101128.59
2023-02-03T23:10:31.084Z,101153.69
2023-02-03T23:13:00.791Z,101163.34
2023-02-03T23:15:28.822Z,101171.16
2023-02-03T23:17:55.914Z,101184.16
2023-02-03T23:20:23.207Z,101184.09
2023-02-03T23:22:50.450Z,101196.19
2023-02-03T23:25:17.573Z,101212.66
2023-02-03T23:27:44.735Z,101221.22
2023-02-03T23:30:12.937Z,101236.66
2023-02-03T23:32:39.901Z,101251.16
2023-02-03T23:35:26.547Z,101272.44
2023-02-03T23:37:53.523Z,101301.41
2023-02-03T23:40:20.642Z,101289.16
2023-02-03T23:42:47.626Z,101293.44
2023-02-03T23:45:14.623Z,101309.84
2023-02-03T23:47:43.598Z,101319.41
2023-02-03T23:50:15.209Z,101327.38
2023-02-03T23:52:42.515Z,101343.78
2023-02-03T23:55:19.013Z,101353.06
2023-02-03T23:57:46.550Z,101352.13
